createdAt,value
2019-05-14T00:02:12.224Z,2.52
2019-05-14T00:04:42.325Z,2.47
2019-05-14T00:07:11.885Z,2.30
2019-05-14T00:09:41.321Z,2.67
2019-05-14T00:12:11.282Z,2.45
2019-05-14T00:14:43.360Z,2.60
2019-05-14T00:17:11.286Z,2.47
2019-05-14T00:19:41.722Z,2.40
2019-05-14T00:22:11.589Z,2.02
2019-05-14T00:24:41.700Z,2.40
2019-05-14T00:27:11.546Z,2.95
2019-05-14T00:29:41.833Z,2.80
2019-05-14T00:32:11.407Z,2.90
2019-05-14T00:34:42.484Z,2.27
2019-05-14T00:37:11.451Z,2.75
2019-05-14T00:39:41.711Z,3.00
2019-05-14T00:42:12.573Z,2.62
2019-05-14T00:44:53.706Z,2.67
2019-05-14T00:47:12.009Z,2.98
2019-05-14T00:49:42.455Z,2.85
2019-05-14T00:52:11.685Z,2.90
2019-05-14T00:54:41.888Z,2.55
2019-05-14T00:57:11.890Z,3.12
2019-05-14T00:59:41.694Z,3.12
2019-05-14T01:02:11.630Z,2.80
2019-05-14T01:04:42.825Z,3.25
2019-05-14T01:07:12.191Z,3.00
2019-05-14T01:09:42.381Z,3.12
2019-05-14T01:12:12.150Z,3.15
2019-05-14T01:14:42.352Z,3.12
2019-05-14T01:17:11.491Z,2.80
2019-05-14T01:19:42.210Z,2.95
2019-05-14T01:22:12.525Z,3.80
2019-05-14T01:24:41.817Z,3.62
2019-05-14T01:27:12.409Z,3.70
2019-05-14T01:29:42.435Z,4.37
2019-05-14T01:32:11.790Z,3.90
2019-05-14T01:34:41.978Z,4.17
2019-05-14T01:37:17.559Z,3.47
2019-05-14T01:39:46.148Z,3.83
2019-05-14T01:42:21.796Z,3.87
2019-05-14T01:44:52.005Z,4.03
2019-05-14T01:47:21.433Z,4.40
2019-05-14T01:49:51.534Z,3.85
2019-05-14T01:52:21.866Z,3.83
2019-05-14T01:54:51.515Z,4.30
2019-05-14T01:57:22.007Z,4.37
2019-05-14T01:59:51.652Z,3.55
2019-05-14T02:02:22.047Z,3.72
2019-05-14T02:04:51.366Z,3.67
2019-05-14T02:07:22.103Z,3.92
2019-05-14T02:09:51.835Z,4.20
2019-05-14T02:12:22.331Z,4.12
2019-05-14T02:14:51.375Z,3.92
2019-05-14T02:17:21.254Z,4.85
2019-05-14T02:19:51.553Z,4.83
2019-05-14T02:22:21.649Z,4.95
2019-05-14T02:24:51.924Z,5.25
2019-05-14T02:27:21.475Z,4.55
2019-05-14T02:29:51.856Z,5.12
2019-05-14T02:32:20.385Z,5.53
2019-05-14T02:34:49.911Z,4.75
2019-05-14T02:37:19.399Z,5.15
2019-05-14T02:39:50.242Z,4.47
2019-05-14T02:42:19.827Z,4.80
2019-05-14T02:44:48.949Z,5.70
2019-05-14T02:47:19.508Z,4.92
2019-05-14T02:49:50.206Z,4.55
2019-05-14T02:52:20.330Z,5.58
2019-05-14T02:54:49.841Z,4.78
2019-05-14T02:57:20.093Z,5.45
2019-05-14T02:59:50.253Z,4.72
2019-05-14T03:02:19.466Z,4.47
2019-05-14T03:04:49.885Z,4.92
2019-05-14T03:07:19.450Z,4.72
2019-05-14T03:09:50.299Z,4.90
2019-05-14T03:12:19.541Z,4.08
2019-05-14T03:14:49.888Z,4.67
2019-05-14T03:17:20.056Z,4.90
2019-05-14T03:19:49.888Z,4.42
2019-05-14T03:22:26.915Z,5.15
2019-05-14T03:24:50.205Z,5.20
2019-05-14T03:27:40.572Z,5.78
2019-05-14T03:30:12.237Z,5.10
2019-05-14T03:32:42.583Z,4.55
2019-05-14T03:35:13.120Z,5.15
2019-05-14T03:37:40.871Z,5.12
2019-05-14T03:40:09.676Z,5.00
2019-05-14T03:42:39.899Z,5.65
2019-05-14T03:45:09.331Z,4.45
2019-05-14T03:47:39.344Z,5.12
2019-05-14T03:50:10.150Z,4.92
2019-05-14T03:52:40.142Z,4.92
2019-05-14T03:55:10.795Z,4.90
2019-05-14T03:57:40.263Z,5.28
2019-05-14T04:00:10.509Z,6.22
2019-05-14T04:02:39.976Z,5.90
2019-05-14T04:05:09.709Z,5.80
2019-05-14T04:07:39.603Z,5.45
2019-05-14T04:10:10.255Z,5.60
2019-05-14T04:12:41.921Z,5.70
2019-05-14T04:15:10.781Z,7.13
2019-05-14T04:17:42.273Z,6.67
2019-05-14T04:20:11.124Z,5.83
2019-05-14T04:22:41.015Z,5.42
2019-05-14T04:25:11.517Z,7.08
2019-05-14T04:27:41.171Z,5.85
2019-05-14T04:30:10.650Z,5.25
2019-05-14T04:32:41.626Z,5.30
2019-05-14T04:35:11.129Z,5.45
2019-05-14T04:37:40.703Z,5.28
2019-05-14T04:40:10.127Z,6.05
2019-05-14T04:42:40.382Z,5.60
2019-05-14T04:45:10.963Z,6.42
2019-05-14T04:47:42.177Z,6.42
2019-05-14T04:50:11.054Z,6.12
2019-05-14T04:52:40.536Z,6.15
2019-05-14T04:55:10.078Z,6.15
2019-05-14T04:57:39.488Z,6.85
2019-05-14T05:00:12.258Z,6.80
2019-05-14T05:02:39.962Z,7.50
2019-05-14T05:05:09.457Z,7.78
2019-05-14T05:07:40.284Z,7.00
2019-05-14T05:10:10.086Z,6.58
2019-05-14T05:12:39.422Z,6.75
2019-05-14T05:15:09.606Z,7.10
2019-05-14T05:17:47.047Z,6.87
2019-05-14T05:20:09.867Z,7.47
2019-05-14T05:22:39.769Z,7.03
2019-05-14T05:25:08.758Z,8.23
2019-05-14T05:27:38.142Z,6.90
2019-05-14T05:30:08.464Z,7.08
2019-05-14T05:32:38.837Z,7.87
2019-05-14T05:35:09.454Z,6.28
2019-05-14T05:37:39.907Z,6.28
2019-05-14T05:40:09.406Z,6.45
2019-05-14T05:42:38.734Z,6.37
2019-05-14T05:45:09.170Z,6.55
2019-05-14T05:47:39.166Z,5.42
2019-05-14T05:50:08.706Z,6.62
2019-05-14T05:52:38.788Z,6.17
2019-05-14T05:55:08.929Z,6.25
2019-05-14T05:57:39.220Z,6.03
2019-05-14T06:00:10.690Z,5.10
2019-05-14T06:02:39.950Z,5.42
2019-05-14T06:05:08.656Z,6.60
2019-05-14T06:07:39.214Z,5.03
2019-05-14T06:10:08.056Z,4.50
2019-05-14T06:12:38.922Z,5.17
2019-05-14T06:15:08.677Z,5.40
2019-05-14T06:17:39.097Z,5.22
2019-05-14T06:20:08.551Z,5.10
2019-05-14T06:22:38.500Z,4.22
2019-05-14T06:25:11.294Z,5.22
2019-05-14T06:27:38.077Z,4.78
2019-05-14T06:30:09.127Z,4.75
2019-05-14T06:32:38.681Z,4.30
2019-05-14T06:35:08.762Z,4.55
2019-05-14T06:37:38.571Z,5.03
2019-05-14T06:40:08.781Z,4.90
2019-05-14T06:42:39.352Z,4.30
2019-05-14T06:45:08.998Z,4.30
2019-05-14T06:47:38.242Z,3.80
2019-05-14T06:50:08.608Z,3.85
2019-05-14T06:52:38.621Z,5.12
2019-05-14T06:55:08.899Z,4.20
2019-05-14T06:57:39.334Z,3.98
2019-05-14T07:00:08.303Z,3.67
2019-05-14T07:02:40.796Z,4.58
2019-05-14T07:05:08.365Z,3.40
2019-05-14T07:07:40.112Z,3.70
2019-05-14T07:10:08.986Z,3.40
2019-05-14T07:12:38.779Z,3.37
2019-05-14T07:15:09.272Z,3.00
2019-05-14T07:17:38.525Z,3.37
2019-05-14T07:20:08.876Z,2.70
2019-05-14T07:22:38.944Z,3.17
2019-05-14T07:25:09.779Z,2.95
2019-05-14T07:27:39.213Z,3.22
2019-05-14T07:30:09.031Z,3.15
2019-05-14T07:32:39.422Z,3.17
2019-05-14T07:35:09.145Z,2.95
2019-05-14T07:37:39.536Z,3.37
2019-05-14T07:40:08.659Z,3.25
2019-05-14T07:42:38.421Z,2.67
2019-05-14T07:45:09.380Z,2.55
2019-05-14T07:47:38.847Z,2.65
2019-05-14T07:50:08.580Z,2.42
2019-05-14T07:52:45.427Z,2.45
2019-05-14T07:55:10.776Z,2.70
2019-05-14T07:57:39.726Z,2.27
2019-05-14T08:00:12.255Z,2.30
2019-05-14T08:02:40.974Z,2.42
2019-05-14T08:05:10.030Z,2.60
2019-05-14T08:07:38.948Z,2.30
2019-05-14T08:10:08.990Z,2.65
2019-05-14T08:12:39.146Z,2.70
2019-05-14T08:15:18.411Z,2.50
2019-05-14T08:17:39.843Z,2.95
2019-05-14T08:20:10.571Z,1.80
2019-05-14T08:22:39.570Z,1.92
2019-05-14T08:25:08.750Z,2.25
2019-05-14T08:27:38.926Z,2.00
2019-05-14T08:30:10.564Z,1.80
2019-05-14T08:32:39.274Z,2.08
2019-05-14T08:35:09.196Z,2.00
2019-05-14T08:37:38.732Z,1.85
2019-05-14T08:40:09.493Z,2.33
2019-05-14T08:42:38.803Z,2.20
2019-05-14T08:45:12.304Z,2.15
2019-05-14T08:47:39.447Z,2.30
2019-05-14T08:50:09.129Z,2.10
2019-05-14T08:52:39.199Z,2.25
2019-05-14T08:55:10.900Z,2.27
2019-05-14T08:57:39.156Z,1.98
2019-05-14T09:00:13.858Z,2.62
2019-05-14T09:02:39.325Z,2.08
2019-05-14T09:05:10.407Z,1.77
2019-05-14T09:07:39.088Z,2.22
2019-05-14T09:10:08.742Z,2.00
2019-05-14T09:12:38.786Z,2.35
2019-05-14T09:15:09.990Z,1.82
2019-05-14T09:17:39.345Z,2.05
2019-05-14T09:20:11.653Z,2.40
2019-05-14T09:22:39.775Z,2.08
2019-05-14T09:25:09.274Z,1.98
2019-05-14T09:27:38.706Z,1.95
2019-05-14T09:30:09.889Z,2.22
2019-05-14T09:32:39.084Z,2.02
2019-05-14T09:35:09.821Z,2.58
2019-05-14T09:37:39.500Z,2.98
2019-05-14T09:40:08.952Z,2.45
2019-05-14T09:42:39.195Z,2.37
2019-05-14T09:45:10.880Z,1.85
2019-05-14T09:47:39.146Z,2.47
2019-05-14T09:50:19.354Z,2.33
2019-05-14T09:52:39.297Z,2.30
2019-05-14T09:55:09.399Z,1.80
2019-05-14T09:57:38.918Z,2.37
2019-05-14T10:00:09.313Z,2.30
2019-05-14T10:02:39.332Z,1.98
2019-05-14T10:05:09.192Z,2.05
2019-05-14T10:07:39.161Z,2.27
2019-05-14T10:10:09.392Z,2.02
2019-05-14T10:12:48.284Z,2.00
2019-05-14T10:15:09.445Z,2.20
2019-05-14T10:17:39.175Z,2.05
2019-05-14T10:20:09.283Z,2.25
2019-05-14T10:22:39.851Z,2.45
2019-05-14T10:25:09.234Z,2.25
2019-05-14T10:27:38.030Z,2.02
2019-05-14T10:30:10.360Z,2.30
2019-05-14T10:32:41.360Z,2.33
2019-05-14T10:35:09.309Z,2.62
2019-05-14T10:37:40.101Z,1.72
2019-05-14T10:40:10.657Z,2.35
2019-05-14T10:42:40.414Z,1.80
2019-05-14T10:45:12.653Z,1.95
2019-05-14T10:47:40.323Z,2.20
2019-05-14T10:50:13.688Z,2.62
2019-05-14T10:52:40.007Z,2.00
2019-05-14T10:55:09.310Z,2.20
2019-05-14T10:57:38.726Z,2.35
2019-05-14T11:00:09.041Z,2.50
2019-05-14T11:02:38.698Z,2.47
2019-05-14T11:05:08.686Z,2.65
2019-05-14T11:07:41.492Z,2.60
2019-05-14T11:10:09.177Z,2.20
2019-05-14T11:12:39.789Z,2.50
2019-05-14T11:15:09.624Z,2.25
2019-05-14T11:17:40.744Z,2.30
2019-05-14T11:20:08.883Z,2.27
2019-05-14T11:22:37.530Z,2.00
2019-05-14T11:25:09.242Z,2.30
2019-05-14T11:27:38.832Z,2.13
2019-05-14T11:30:09.025Z,2.05
2019-05-14T11:32:38.660Z,2.30
2019-05-14T11:35:12.852Z,2.50
2019-05-14T11:37:41.447Z,2.45
2019-05-14T11:40:09.706Z,2.30
2019-05-14T11:42:38.823Z,1.72
2019-05-14T11:45:09.393Z,2.20
2019-05-14T11:47:38.131Z,2.52
2019-05-14T11:50:10.053Z,2.47
2019-05-14T11:52:38.975Z,2.50
2019-05-14T11:55:09.239Z,2.30
2019-05-14T11:57:37.987Z,2.70
2019-05-14T12:00:10.283Z,2.67
2019-05-14T12:02:38.906Z,2.40
2019-05-14T12:05:09.085Z,2.25
2019-05-14T12:07:38.870Z,2.45
2019-05-14T12:10:09.175Z,2.33
2019-05-14T12:12:37.906Z,2.80
2019-05-14T12:15:09.015Z,2.65
2019-05-14T12:17:39.365Z,2.30
2019-05-14T12:20:08.787Z,2.25
2019-05-14T12:22:39.344Z,2.80
2019-05-14T12:25:08.235Z,1.95
2019-05-14T12:27:38.723Z,2.02
2019-05-14T12:30:09.822Z,2.37
2019-05-14T12:32:39.572Z,2.20
2019-05-14T12:35:08.935Z,2.37
2019-05-14T12:37:38.808Z,2.77
2019-05-14T12:40:08.810Z,2.62
2019-05-14T12:42:39.101Z,2.10
2019-05-14T12:45:11.556Z,2.17
2019-05-14T12:47:40.230Z,2.92
2019-05-14T12:50:09.684Z,2.52
2019-05-14T12:52:38.919Z,2.35
2019-05-14T12:55:09.093Z,2.55
2019-05-14T12:57:39.435Z,2.20
2019-05-14T13:00:09.154Z,2.58
2019-05-14T13:02:37.923Z,2.20
2019-05-14T13:05:08.992Z,2.00
2019-05-14T13:07:41.555Z,2.50
2019-05-14T13:10:09.284Z,2.60
2019-05-14T13:12:39.027Z,2.50
2019-05-14T13:15:09.214Z,2.30
2019-05-14T13:17:38.963Z,2.60
2019-05-14T13:20:13.809Z,2.20
2019-05-14T13:22:46.152Z,2.22
2019-05-14T13:25:11.194Z,2.40
2019-05-14T13:27:40.117Z,2.00
2019-05-14T13:30:09.388Z,2.05
2019-05-14T13:32:39.378Z,2.05
2019-05-14T13:35:13.266Z,2.10
2019-05-14T13:37:39.953Z,2.42
2019-05-14T13:40:09.355Z,2.08
2019-05-14T13:42:39.882Z,1.92
2019-05-14T13:45:10.348Z,2.15
2019-05-14T13:47:39.168Z,2.00
2019-05-14T13:50:08.843Z,2.20
2019-05-14T13:52:40.543Z,2.08
2019-05-14T13:55:09.874Z,2.22
2019-05-14T13:57:39.826Z,2.37
2019-05-14T14:00:11.916Z,2.52
2019-05-14T14:02:41.230Z,2.80
2019-05-14T14:05:10.175Z,2.37
2019-05-14T14:07:39.736Z,1.70
2019-05-14T14:10:09.603Z,2.40
2019-05-14T14:12:40.287Z,2.20
2019-05-14T14:15:10.059Z,2.72
2019-05-14T14:17:39.248Z,2.10
2019-05-14T14:20:08.769Z,2.15
2019-05-14T14:22:39.999Z,2.08
2019-05-14T14:25:09.005Z,2.17
2019-05-14T14:27:40.845Z,1.75
2019-05-14T14:30:09.478Z,1.75
2019-05-14T14:32:40.705Z,2.33
2019-05-14T14:35:08.976Z,2.30
2019-05-14T14:37:39.698Z,1.80
2019-05-14T14:40:09.896Z,2.33
2019-05-14T14:42:39.972Z,2.10
2019-05-14T14:45:09.408Z,2.22
2019-05-14T14:47:39.477Z,2.12
2019-05-14T14:50:09.645Z,2.20
2019-05-14T14:52:38.494Z,2.60
2019-05-14T14:55:07.650Z,2.30
2019-05-14T14:57:43.833Z,2.50
2019-05-14T15:00:11.117Z,2.27
2019-05-14T15:02:41.157Z,2.12
2019-05-14T15:05:14.232Z,1.98
2019-05-14T15:07:41.374Z,2.45
2019-05-14T15:10:10.906Z,2.12
2019-05-14T15:12:40.422Z,2.17
2019-05-14T15:15:09.775Z,2.20
2019-05-14T15:17:39.476Z,2.45
2019-05-14T15:20:10.511Z,2.00
2019-05-14T15:22:39.542Z,1.90
2019-05-14T15:25:09.089Z,2.30
2019-05-14T15:27:38.745Z,2.45
2019-05-14T15:30:08.907Z,2.47
2019-05-14T15:32:37.908Z,1.85
2019-05-14T15:35:11.132Z,2.47
2019-05-14T15:37:42.614Z,2.22
2019-05-14T15:40:10.422Z,2.30
2019-05-14T15:42:39.609Z,2.30
2019-05-14T15:45:09.331Z,2.58
2019-05-14T15:47:39.025Z,2.47
2019-05-14T15:50:09.436Z,2.45
2019-05-14T15:52:39.433Z,1.85
2019-05-14T15:55:09.761Z,2.62
2019-05-14T15:57:39.729Z,2.00
2019-05-14T16:00:09.827Z,2.40
2019-05-14T16:02:39.583Z,2.50
2019-05-14T16:05:09.963Z,2.42
2019-05-14T16:07:39.679Z,1.98
2019-05-14T16:10:08.808Z,2.30
2019-05-14T16:12:39.922Z,2.40
2019-05-14T16:15:08.629Z,2.10
2019-05-14T16:17:47.465Z,2.42
2019-05-14T16:20:09.492Z,2.08
2019-05-14T16:22:39.988Z,2.00
2019-05-14T16:25:09.894Z,2.10
2019-05-14T16:27:39.456Z,2.17
2019-05-14T16:30:10.066Z,2.10
2019-05-14T16:32:39.873Z,2.17
2019-05-14T16:35:09.148Z,2.05
2019-05-14T16:37:39.305Z,2.00
2019-05-14T16:40:08.702Z,1.85
2019-05-14T16:42:39.727Z,2.12
2019-05-14T16:45:08.682Z,1.90
2019-05-14T16:47:39.776Z,2.00
2019-05-14T16:50:09.878Z,2.30
2019-05-14T16:52:42.141Z,2.33
2019-05-14T16:55:23.107Z,2.37
2019-05-14T16:57:39.849Z,2.37
2019-05-14T17:00:09.837Z,2.47
2019-05-14T17:02:38.719Z,2.65
2019-05-14T17:05:09.190Z,2.00
2019-05-14T17:07:38.500Z,3.12
2019-05-14T17:10:08.567Z,2.70
2019-05-14T17:12:49.426Z,2.80
2019-05-14T17:15:09.649Z,2.27
2019-05-14T17:17:38.379Z,2.42
2019-05-14T17:20:08.455Z,2.55
2019-05-14T17:22:39.665Z,2.72
2019-05-14T17:25:09.519Z,2.40
2019-05-14T17:27:39.406Z,2.95
2019-05-14T17:30:09.087Z,2.12
2019-05-14T17:32:39.142Z,2.58
2019-05-14T17:35:08.797Z,3.12
2019-05-14T17:37:39.409Z,2.72
2019-05-14T17:40:09.336Z,2.83
2019-05-14T17:42:39.329Z,3.17
2019-05-14T17:45:09.181Z,3.42
2019-05-14T17:47:38.814Z,2.90
2019-05-14T17:50:08.754Z,2.87
2019-05-14T17:52:43.591Z,3.10
2019-05-14T17:55:12.100Z,2.85
2019-05-14T17:57:45.785Z,3.00
2019-05-14T18:00:10.983Z,2.70
2019-05-14T18:02:39.800Z,2.62
2019-05-14T18:05:09.565Z,3.12
2019-05-14T18:07:38.464Z,3.25
2019-05-14T18:10:08.918Z,3.27
2019-05-14T18:12:39.705Z,3.00
2019-05-14T18:15:08.899Z,2.70
2019-05-14T18:17:39.423Z,2.40
2019-05-14T18:20:09.891Z,2.33
2019-05-14T18:22:42.052Z,2.72
2019-05-14T18:25:09.536Z,2.30
2019-05-14T18:27:39.119Z,1.98
2019-05-14T18:30:09.578Z,2.33
2019-05-14T18:32:38.327Z,2.40
2019-05-14T18:35:08.065Z,2.45
2019-05-14T18:37:38.665Z,2.67
2019-05-14T18:40:09.302Z,2.40
2019-05-14T18:42:39.107Z,3.08
2019-05-14T18:45:10.997Z,2.33
2019-05-14T18:47:40.079Z,2.47
2019-05-14T18:50:09.543Z,2.35
2019-05-14T18:52:39.810Z,2.20
2019-05-14T18:55:08.753Z,2.40
2019-05-14T18:57:38.224Z,2.40
2019-05-14T19:00:09.161Z,2.83
2019-05-14T19:02:39.232Z,2.67
2019-05-14T19:05:08.689Z,2.33
2019-05-14T19:07:39.469Z,2.37
2019-05-14T19:10:09.304Z,2.20
2019-05-14T19:12:38.793Z,2.52
2019-05-14T19:15:08.846Z,2.20
2019-05-14T19:17:38.521Z,2.30
2019-05-14T19:20:09.443Z,2.60
2019-05-14T19:22:39.592Z,2.80
2019-05-14T19:25:09.627Z,3.00
2019-05-14T19:27:38.290Z,2.35
2019-05-14T19:30:08.411Z,2.92
2019-05-14T19:32:39.217Z,2.67
2019-05-14T19:35:08.668Z,2.47
2019-05-14T19:37:39.024Z,2.37
2019-05-14T19:40:09.269Z,2.33
2019-05-14T19:42:39.013Z,2.72
2019-05-14T19:45:09.135Z,2.30
2019-05-14T19:47:39.975Z,2.00
2019-05-14T19:50:09.359Z,2.72
2019-05-14T19:52:39.148Z,2.37
2019-05-14T19:55:08.382Z,2.17
2019-05-14T19:57:38.352Z,2.58
2019-05-14T20:00:09.158Z,2.55
2019-05-14T20:02:38.037Z,2.40
2019-05-14T20:05:09.674Z,2.45
2019-05-14T20:07:38.927Z,2.37
2019-05-14T20:10:08.762Z,2.67
2019-05-14T20:12:39.170Z,2.00
2019-05-14T20:15:09.395Z,2.62
2019-05-14T20:17:38.620Z,2.20
2019-05-14T20:20:09.216Z,2.60
2019-05-14T20:22:39.466Z,2.50
2019-05-14T20:25:09.293Z,2.45
2019-05-14T20:27:38.991Z,2.27
2019-05-14T20:30:09.935Z,2.20
2019-05-14T20:32:39.285Z,2.67
2019-05-14T20:35:09.348Z,2.20
2019-05-14T20:37:39.177Z,2.52
2019-05-14T20:40:08.988Z,2.40
2019-05-14T20:42:39.087Z,2.55
2019-05-14T20:45:08.199Z,2.25
2019-05-14T20:47:39.137Z,2.37
2019-05-14T20:50:08.931Z,2.35
2019-05-14T20:52:37.992Z,2.30
2019-05-14T20:55:09.503Z,2.62
2019-05-14T20:57:38.537Z,2.40
2019-05-14T21:00:11.327Z,2.50
2019-05-14T21:02:39.819Z,3.17
2019-05-14T21:05:13.441Z,2.20
2019-05-14T21:07:40.154Z,2.60
2019-05-14T21:10:09.181Z,2.30
2019-05-14T21:12:39.456Z,2.45
2019-05-14T21:15:09.439Z,2.60
2019-05-14T21:17:39.094Z,2.42
2019-05-14T21:20:09.013Z,2.42
2019-05-14T21:22:40.119Z,2.80
2019-05-14T21:25:12.399Z,2.60
2019-05-14T21:27:48.137Z,2.72
2019-05-14T21:30:10.527Z,2.65
2019-05-14T21:32:42.411Z,2.62
2019-05-14T21:35:09.522Z,2.42
2019-05-14T21:37:39.436Z,2.60
2019-05-14T21:40:09.191Z,2.65
2019-05-14T21:42:38.586Z,3.00
2019-05-14T21:45:09.853Z,2.47
2019-05-14T21:47:38.993Z,2.45
2019-05-14T21:50:09.044Z,2.67
2019-05-14T21:52:42.295Z,1.92
2019-05-14T21:55:14.019Z,2.42
2019-05-14T21:57:54.184Z,1.98
2019-05-14T22:00:19.146Z,2.02
2019-05-14T22:02:49.157Z,2.30
2019-05-14T22:05:19.025Z,1.98
2019-05-14T22:07:48.485Z,1.95
2019-05-14T22:10:19.093Z,2.25
2019-05-14T22:12:48.749Z,2.12
2019-05-14T22:15:19.373Z,1.80
2019-05-14T22:17:49.199Z,1.87
2019-05-14T22:20:19.327Z,2.15
2019-05-14T22:22:48.526Z,2.05
2019-05-14T22:25:19.013Z,1.80
2019-05-14T22:27:48.359Z,1.60
2019-05-14T22:30:24.010Z,2.00
2019-05-14T22:32:52.600Z,1.80
2019-05-14T22:35:31.124Z,2.10
2019-05-14T22:37:59.678Z,1.92
2019-05-14T22:40:29.150Z,1.85
2019-05-14T22:43:00.231Z,1.70
2019-05-14T22:45:28.475Z,1.70
2019-05-14T22:47:58.873Z,1.77
2019-05-14T22:50:29.444Z,1.70
2019-05-14T22:52:58.744Z,1.57
2019-05-14T22:55:28.932Z,1.60
2019-05-14T22:57:59.233Z,1.67
2019-05-14T23:00:28.763Z,1.72
2019-05-14T23:02:57.956Z,2.00
2019-05-14T23:05:28.781Z,1.85
2019-05-14T23:07:58.311Z,1.65
2019-05-14T23:10:27.583Z,2.17
2019-05-14T23:12:58.381Z,1.45
2019-05-14T23:15:28.845Z,1.55
2019-05-14T23:17:58.907Z,1.42
2019-05-14T23:20:28.889Z,1.25
2019-05-14T23:22:58.396Z,1.67
2019-05-14T23:25:29.107Z,1.50
2019-05-14T23:27:58.937Z,1.62
2019-05-14T23:30:32.727Z,1.82
2019-05-14T23:33:04.167Z,1.35
2019-05-14T23:35:32.823Z,1.85
2019-05-14T23:38:01.536Z,1.55
2019-05-14T23:40:30.619Z,1.85
2019-05-14T23:42:59.639Z,1.77
2019-05-14T23:45:28.740Z,2.00
2019-05-14T23:47:58.615Z,1.60
2019-05-14T23:50:28.326Z,2.30
2019-05-14T23:52:59.868Z,1.60
2019-05-14T23:55:28.875Z,1.40
2019-05-14T23:57:58.688Z,2.55
